Time;durP1;ratioP1;P1;durP2;ratioP2;P2;SDS_P1;SDS_P2;PMS_P1;PMS_P2;Temp;Humidity;BMP_temperature;BMP_pressure;BME280_temperature;BME280_humidity;BME280_pressure;Samples;Min_cycle;Max_cycle;Signal;HPM_P1;HPM_P2
2022/01/28 00:00:30;;;;;;;16.33;3.17;;;4.40;99.90;;;;;;5012822;28;20046;-67
2022/01/28 00:03:06;;;;;;;9.27;2.47;;;4.50;99.90;;;;;;5001573;28;20378;-68
2022/01/28 00:05:34;;;;;;;12.80;2.38;;;4.60;99.90;;;;;;5009597;28;20050;-65
2022/01/28 00:07:59;;;;;;;7.18;1.75;;;4.60;99.90;;;;;;5013953;28;20051;-65
2022/01/28 00:10:26;;;;;;;8.80;1.92;;;4.70;99.90;;;;;;5014580;28;20064;-67
2022/01/28 00:40:20;;;;;;;10.65;2.00;;;4.60;99.90;;;;;;5013839;28;20050;-66
2022/01/28 00:42:45;;;;;;;12.55;2.50;;;4.70;99.90;;;;;;5014939;28;20549;-66
2022/01/28 00:45:11;;;;;;;8.95;2.40;;;4.70;99.90;;;;;;5014978;28;20192;-65
2022/01/28 00:47:37;;;;;;;11.00;2.38;;;4.70;99.90;;;;;;5013809;28;20054;-65
2022/01/28 00:50:03;;;;;;;17.45;3.30;;;4.80;99.90;;;;;;5014004;28;20058;-67
2022/01/28 00:52:29;;;;;;;13.48;2.92;;;4.80;99.90;;;;;;5014019;28;20061;-66
2022/01/28 00:54:55;;;;;;;13.05;2.72;;;4.80;99.90;;;;;;5013227;28;20406;-66
2022/01/28 00:57:20;;;;;;;13.25;2.60;;;4.90;99.90;;;;;;5013432;28;20042;-69
2022/01/28 00:59:46;;;;;;;14.02;3.00;;;4.70;99.90;;;;;;5013404;28;20046;-66
2022/01/28 01:02:11;;;;;;;8.38;1.83;;;4.70;99.90;;;;;;5014986;28;20057;-65
2022/01/28 01:04:37;;;;;;;13.43;2.53;;;4.60;99.90;;;;;;5014604;28;20046;-65
2022/01/28 01:07:03;;;;;;;12.32;2.83;;;4.40;99.90;;;;;;5013807;28;20474;-66
2022/01/28 01:09:29;;;;;;;14.95;2.55;;;4.50;99.90;;;;;;4989135;28;20045;-66
2022/01/28 01:11:54;;;;;;;14.60;2.85;;;4.40;99.90;;;;;;5012747;28;20129;-65
2022/01/28 01:14:20;;;;;;;16.05;2.90;;;4.40;99.90;;;;;;5007598;28;20050;-67
2022/01/28 01:17:03;;;;;;;17.55;4.05;;;4.30;99.90;;;;;;4993554;28;20050;-66
2022/01/28 01:19:33;;;;;;;15.02;2.65;;;4.30;99.90;;;;;;5008320;28;20072;-65
2022/01/28 01:22:00;;;;;;;14.07;2.63;;;4.30;99.90;;;;;;5012986;28;20058;-65
2022/01/28 01:24:28;;;;;;;12.50;2.60;;;4.30;99.90;;;;;;5000415;28;20050;-67
2022/01/28 01:26:54;;;;;;;13.13;2.72;;;4.30;99.90;;;;;;4976919;28;20050;-68
2022/01/28 01:29:22;;;;;;;15.02;3.30;;;4.30;99.90;;;;;;4993559;28;20077;-66
2022/01/28 01:31:48;;;;;;;18.75;3.25;;;4.30;99.90;;;;;;5008959;28;20050;-66
2022/01/28 01:34:21;;;;;;;13.10;2.80;;;4.20;99.90;;;;;;5013447;28;20414;-63
2022/01/28 01:36:47;;;;;;;12.57;2.90;;;4.30;99.90;;;;;;5013225;28;20057;-66
2022/01/28 01:39:23;;;;;;;13.65;2.70;;;4.40;99.90;;;;;;4998545;28;20096;-65
2022/01/28 01:42:00;;;;;;;12.40;2.22;;;4.40;99.90;;;;;;4992898;28;20061;-66
2022/01/28 01:52:33;;;;;;;9.98;2.08;;;4.50;99.90;;;;;;4993218;28;20050;-64
2022/01/28 01:54:59;;;;;;;15.00;3.40;;;4.70;99.90;;;;;;4993252;28;20116;-65
2022/01/28 01:57:24;;;;;;;12.57;2.50;;;4.70;99.90;;;;;;4992567;28;20062;-65
2022/01/28 01:59:50;;;;;;;11.98;2.38;;;4.70;99.90;;;;;;4993097;28;20137;-66
2022/01/28 02:02:16;;;;;;;13.95;3.70;;;4.70;99.90;;;;;;4992918;28;20450;-67
2022/01/28 02:04:42;;;;;;;14.40;3.00;;;4.70;99.90;;;;;;4992757;28;20144;-66
2022/01/28 02:07:08;;;;;;;11.63;2.67;;;4.60;99.90;;;;;;4998707;28;20084;-64
2022/01/28 02:09:34;;;;;;;14.13;2.85;;;4.90;99.90;;;;;;5011762;28;20058;-66
2022/01/28 02:11:59;;;;;;;9.10;2.50;;;4.70;99.90;;;;;;5012208;28;20155;-66
2022/01/28 02:14:25;;;;;;;11.23;2.40;;;4.80;99.90;;;;;;5012421;28;20049;-65
2022/01/28 02:16:51;;;;;;;13.25;2.45;;;4.70;99.90;;;;;;5012627;28;20138;-66
2022/01/28 02:19:16;;;;;;;15.88;3.22;;;4.80;99.90;;;;;;5012661;28;20050;-65
2022/01/28 02:21:48;;;;;;;16.58;3.30;;;4.70;99.90;;;;;;5010571;28;20064;-65
2022/01/28 02:24:18;;;;;;;16.67;3.00;;;4.70;99.90;;;;;;5012524;28;20064;-67
2022/01/28 02:26:43;;;;;;;13.23;2.83;;;4.70;99.90;;;;;;5011591;28;20449;-66
2022/01/28 02:29:13;;;;;;;18.80;3.58;;;4.70;99.90;;;;;;5011846;28;20096;-65
2022/01/28 02:31:40;;;;;;;18.20;3.38;;;4.80;99.90;;;;;;5012041;28;20057;-65
2022/01/28 02:34:09;;;;;;;12.48;2.60;;;4.80;99.90;;;;;;5012645;28;20133;-65
2022/01/28 02:36:34;;;;;;;13.55;3.20;;;4.90;99.90;;;;;;5007026;28;20097;-64
2022/01/28 02:39:01;;;;;;;10.57;2.15;;;4.80;99.90;;;;;;4993858;28;20042;-66
2022/01/28 02:41:31;;;;;;;16.08;3.78;;;4.90;99.90;;;;;;4991748;28;20058;-67
2022/01/28 02:44:15;;;;;;;16.90;2.78;;;4.90;99.90;;;;;;4992260;28;20050;-67
2022/01/28 02:46:52;;;;;;;15.23;3.45;;;5.00;99.90;;;;;;4992344;28;20105;-67
2022/01/28 02:49:18;;;;;;;18.23;3.10;;;5.00;99.90;;;;;;4992209;28;20054;-65
2022/01/28 02:51:44;;;;;;;13.23;3.17;;;5.00;99.90;;;;;;4992388;28;20046;-65
2022/01/28 02:54:15;;;;;;;17.38;3.35;;;5.10;99.90;;;;;;4992836;28;20046;-67
2022/01/28 02:56:49;;;;;;;12.63;3.58;;;5.00;99.90;;;;;;4993022;28;20494;-65
2022/01/28 02:59:14;;;;;;;17.77;3.15;;;4.90;99.90;;;;;;4992338;28;20126;-67
2022/01/28 03:01:40;;;;;;;17.25;3.05;;;4.90;99.90;;;;;;4992100;28;20133;-65
2022/01/28 03:04:08;;;;;;;12.75;2.83;;;4.80;99.90;;;;;;4991946;28;20066;-66
2022/01/28 03:06:33;;;;;;;17.95;3.47;;;4.80;99.90;;;;;;4998921;28;20045;-64
2022/01/28 03:09:04;;;;;;;13.80;2.70;;;4.80;99.90;;;;;;5011829;28;20061;-68
2022/01/28 03:11:43;;;;;;;13.07;3.10;;;4.70;99.90;;;;;;5010319;28;20133;-64
2022/01/28 03:16:51;;;;;;;22.92;3.75;;;4.60;99.90;;;;;;5000393;28;20514;-67
2022/01/28 03:19:20;;;;;;;18.35;3.13;;;4.60;99.90;;;;;;4998312;28;20466;-64
2022/01/28 03:21:54;;;;;;;10.52;2.83;;;4.60;99.90;;;;;;5011187;28;20097;-66
2022/01/28 03:24:21;;;;;;;16.58;3.42;;;4.70;99.90;;;;;;5010974;28;20054;-66
2022/01/28 03:26:50;;;;;;;15.65;2.75;;;4.70;99.90;;;;;;5012509;28;20048;-65
2022/01/28 03:29:15;;;;;;;24.25;3.40;;;4.60;99.90;;;;;;5011415;28;20091;-65
2022/01/28 03:31:41;;;;;;;18.70;2.90;;;4.60;99.90;;;;;;5011005;28;20082;-66
2022/01/28 03:34:07;;;;;;;8.75;2.42;;;4.60;99.90;;;;;;5028067;28;20069;-67
2022/01/28 03:36:32;;;;;;;14.18;3.42;;;4.60;99.90;;;;;;5012869;28;20508;-66
2022/01/28 03:38:58;;;;;;;13.80;3.08;;;4.60;99.90;;;;;;5010454;28;20509;-66
2022/01/28 03:41:24;;;;;;;12.95;2.80;;;4.60;99.90;;;;;;5010377;28;20501;-65
2022/01/28 03:43:57;;;;;;;12.40;2.90;;;4.50;99.90;;;;;;5011589;28;20042;-65
2022/01/28 03:46:23;;;;;;;15.35;2.75;;;4.40;99.90;;;;;;4975881;28;20474;-64
2022/01/28 03:48:49;;;;;;;12.88;3.30;;;4.40;99.90;;;;;;4999223;28;20129;-64
2022/01/28 03:51:14;;;;;;;17.98;3.50;;;4.30;99.90;;;;;;5010636;28;20168;-65
2022/01/28 03:53:40;;;;;;;16.33;2.55;;;4.20;99.90;;;;;;5018149;28;20125;-65
2022/01/28 03:56:05;;;;;;;17.50;3.60;;;4.20;99.90;;;;;;5012180;28;20133;-66
2022/01/28 03:58:31;;;;;;;17.45;3.30;;;4.00;99.90;;;;;;5013955;28;20378;-65
2022/01/28 04:00:58;;;;;;;16.63;3.20;;;4.00;99.90;;;;;;5013559;28;20054;-66
2022/01/28 04:11:32;;;;;;;23.85;3.88;;;4.00;99.90;;;;;;5023646;28;20061;-65
2022/01/28 04:14:11;;;;;;;14.30;3.40;;;4.00;99.90;;;;;;5014263;28;20053;-66
2022/01/28 04:19:21;;;;;;;15.48;3.60;;;4.00;99.90;;;;;;5013778;28;20054;-64
2022/01/28 04:21:47;;;;;;;20.70;3.30;;;4.00;99.90;;;;;;5014046;28;20054;-65
2022/01/28 04:24:13;;;;;;;11.98;3.30;;;3.90;99.90;;;;;;5019614;28;20061;-66
2022/01/28 04:26:39;;;;;;;16.70;3.30;;;4.00;99.90;;;;;;5026341;28;20049;-65
2022/01/28 04:29:06;;;;;;;13.38;3.40;;;4.00;99.90;;;;;;5027873;28;20058;-65
2022/01/28 04:31:32;;;;;;;17.65;4.32;;;4.00;99.90;;;;;;5002983;28;20086;-65
2022/01/28 04:34:00;;;;;;;18.23;4.15;;;4.20;99.90;;;;;;5007415;28;20042;-64
2022/01/28 04:36:28;;;;;;;14.65;3.30;;;4.10;99.90;;;;;;5004662;28;20049;-64
2022/01/28 04:39:06;;;;;;;18.17;3.47;;;4.10;99.90;;;;;;5014762;28;20516;-65
2022/01/28 04:41:57;;;;;;;20.30;3.53;;;4.10;99.90;;;;;;5013553;28;20089;-66
2022/01/28 04:44:32;;;;;;;19.13;3.40;;;4.10;99.90;;;;;;5005509;28;20056;-65
2022/01/28 04:47:08;;;;;;;18.67;3.80;;;4.10;99.90;;;;;;5013625;28;20054;-66
2022/01/28 04:49:56;;;;;;;14.48;3.38;;;4.10;99.90;;;;;;4995850;28;20054;-66
2022/01/28 04:57:38;;;;;;;29.13;4.93;;;4.10;99.90;;;;;;4993387;28;20057;-67
2022/01/28 05:00:23;;;;;;;17.85;4.18;;;4.20;99.90;;;;;;4994124;28;20050;-63
2022/01/28 05:08:45;;;;;;;17.23;3.28;;;4.20;99.90;;;;;;4983687;28;20521;-66
2022/01/28 05:26:58;;;;;;;16.63;3.53;;;4.10;99.90;;;;;;4992647;28;20050;-66
2022/01/28 05:29:24;;;;;;;21.10;3.90;;;4.10;99.90;;;;;;4994085;28;20047;-65
2022/01/28 05:31:49;;;;;;;14.95;3.60;;;4.10;99.90;;;;;;4993519;28;20545;-65
2022/01/28 05:34:15;;;;;;;20.52;4.28;;;4.20;99.90;;;;;;4977743;28;20073;-65
2022/01/28 05:36:41;;;;;;;24.50;4.72;;;4.20;99.90;;;;;;4993233;28;20058;-65
2022/01/28 05:39:07;;;;;;;15.90;4.00;;;4.20;99.90;;;;;;4993581;28;20057;-64
2022/01/28 05:41:33;;;;;;;22.80;4.25;;;4.20;99.90;;;;;;5005553;28;20078;-66
2022/01/28 05:44:00;;;;;;;24.55;4.75;;;4.20;99.90;;;;;;5012500;28;20405;-64
2022/01/28 05:46:28;;;;;;;22.83;3.90;;;4.30;99.90;;;;;;5012188;28;20477;-66
2022/01/28 05:48:54;;;;;;;19.75;3.90;;;4.30;99.90;;;;;;5012422;28;20096;-64
2022/01/28 05:51:19;;;;;;;17.33;4.82;;;4.30;99.90;;;;;;4995334;28;20506;-67
2022/01/28 05:53:45;;;;;;;17.75;3.45;;;4.20;99.90;;;;;;5012892;28;20332;-65
2022/01/28 05:56:10;;;;;;;16.58;4.30;;;4.30;99.90;;;;;;5012442;28;20347;-65
2022/01/28 05:58:36;;;;;;;20.13;4.03;;;4.20;99.90;;;;;;5010699;28;20446;-64
2022/01/28 06:01:02;;;;;;;16.50;3.60;;;4.20;99.90;;;;;;4992895;28;20529;-65
2022/01/28 06:03:28;;;;;;;21.20;5.15;;;4.20;99.90;;;;;;5001244;28;20049;-66
2022/01/28 06:05:53;;;;;;;20.70;3.97;;;4.30;99.90;;;;;;5012782;28;20092;-64
2022/01/28 06:08:19;;;;;;;16.05;3.90;;;4.30;99.90;;;;;;5013038;28;20073;-67
2022/01/28 06:10:44;;;;;;;19.10;3.50;;;4.30;99.90;;;;;;5012677;28;20049;-65
2022/01/28 06:13:11;;;;;;;21.08;3.85;;;4.40;99.90;;;;;;5012650;28;20124;-66
2022/01/28 06:15:40;;;;;;;16.77;4.18;;;4.40;99.90;;;;;;5011492;28;20068;-64
2022/01/28 06:18:06;;;;;;;15.07;3.65;;;4.50;99.90;;;;;;5012453;28;20053;-64
2022/01/28 06:20:32;;;;;;;18.77;3.80;;;4.50;99.90;;;;;;5013135;28;20068;-65
2022/01/28 06:22:57;;;;;;;18.25;3.50;;;4.50;99.90;;;;;;5012290;28;20042;-66
2022/01/28 06:25:23;;;;;;;14.18;4.13;;;4.50;99.90;;;;;;5014856;28;20093;-66
2022/01/28 06:27:49;;;;;;;19.25;4.68;;;4.60;99.90;;;;;;5011793;28;20398;-67
2022/01/28 06:30:16;;;;;;;15.75;3.95;;;4.70;99.90;;;;;;5008681;28;20053;-66
2022/01/28 06:32:43;;;;;;;14.82;4.22;;;4.70;99.90;;;;;;4992779;28;20074;-65
2022/01/28 06:35:09;;;;;;;17.05;4.25;;;4.90;99.90;;;;;;4992771;28;20058;-67
2022/01/28 06:37:36;;;;;;;15.55;3.45;;;4.80;99.90;;;;;;4997929;28;20058;-67
2022/01/28 06:40:03;;;;;;;25.25;4.43;;;4.70;99.90;;;;;;5012120;28;20099;-63
2022/01/28 06:42:29;;;;;;;23.35;5.45;;;4.80;99.90;;;;;;5016586;28;20474;-65
2022/01/28 06:44:54;;;;;;;19.85;4.10;;;4.70;99.90;;;;;;5032651;28;20107;-66
2022/01/28 06:47:20;;;;;;;17.27;4.43;;;4.70;99.90;;;;;;5031713;28;20369;-66
2022/01/28 06:49:45;;;;;;;18.75;4.43;;;4.70;99.90;;;;;;5032228;28;20128;-65
2022/01/28 06:52:11;;;;;;;17.70;4.18;;;4.70;99.90;;;;;;5025793;28;20046;-64
2022/01/28 06:54:37;;;;;;;16.98;3.55;;;4.70;99.90;;;;;;5011002;28;20088;-67
2022/01/28 06:57:02;;;;;;;21.23;3.08;;;4.60;99.90;;;;;;5011119;28;20522;-65
2022/01/28 06:59:28;;;;;;;16.30;3.85;;;4.70;99.90;;;;;;5010286;28;20108;-65
2022/01/28 07:01:53;;;;;;;20.95;4.32;;;4.70;99.90;;;;;;5010263;28;20437;-65
2022/01/28 07:04:19;;;;;;;20.50;3.97;;;4.70;99.90;;;;;;5011167;28;20053;-64
2022/01/28 07:06:46;;;;;;;25.45;3.78;;;4.70;99.90;;;;;;5006833;28;20367;-65
2022/01/28 07:09:11;;;;;;;18.77;3.60;;;4.90;99.90;;;;;;5011001;28;20056;-65
2022/01/28 07:11:37;;;;;;;12.40;3.42;;;4.60;99.90;;;;;;5010662;28;20054;-64
2022/01/28 07:14:03;;;;;;;16.48;3.55;;;4.70;99.90;;;;;;4995229;28;20133;-64
2022/01/28 07:16:29;;;;;;;21.65;4.18;;;4.60;99.90;;;;;;5011532;28;20132;-66
2022/01/28 07:18:55;;;;;;;20.25;4.72;;;4.60;99.90;;;;;;5012012;28;20401;-64
2022/01/28 07:21:21;;;;;;;24.48;4.47;;;4.50;99.90;;;;;;5012754;28;20050;-65
2022/01/28 07:23:47;;;;;;;19.35;4.88;;;4.50;99.90;;;;;;5011674;28;20125;-64
2022/01/28 07:26:12;;;;;;;17.67;4.20;;;4.50;99.90;;;;;;5010023;28;20054;-64
2022/01/28 07:28:39;;;;;;;20.70;3.85;;;4.50;99.90;;;;;;4995541;28;20061;-63
2022/01/28 07:31:05;;;;;;;16.27;3.88;;;4.30;99.90;;;;;;5014443;28;20129;-65
2022/01/28 07:33:31;;;;;;;15.90;3.22;;;4.30;99.90;;;;;;5014275;28;20132;-67
2022/01/28 07:35:56;;;;;;;15.55;3.80;;;4.20;99.90;;;;;;5014240;28;20046;-64
2022/01/28 07:38:22;;;;;;;13.48;3.63;;;4.20;99.90;;;;;;5014460;28;20054;-64
2022/01/28 07:40:47;;;;;;;24.27;3.92;;;4.20;99.90;;;;;;5015132;28;20054;-67
2022/01/28 07:43:13;;;;;;;17.80;3.60;;;4.90;99.90;;;;;;4998234;28;20049;-65
2022/01/28 07:45:39;;;;;;;17.38;3.85;;;4.20;99.90;;;;;;5011073;28;20042;-64
2022/01/28 07:48:04;;;;;;;17.50;3.60;;;4.30;99.90;;;;;;5013914;28;20058;-66
2022/01/28 07:50:30;;;;;;;20.30;3.63;;;4.30;99.90;;;;;;5014297;28;20068;-66
2022/01/28 07:52:55;;;;;;;21.27;4.13;;;4.40;99.90;;;;;;5015797;28;20046;-66
2022/01/28 07:55:21;;;;;;;20.30;4.57;;;4.40;99.90;;;;;;5014822;28;20092;-65
2022/01/28 07:57:47;;;;;;;15.82;4.13;;;4.50;99.90;;;;;;5010981;28;20418;-64
2022/01/28 08:00:14;;;;;;;19.83;4.18;;;4.30;99.90;;;;;;5014337;28;20054;-65
2022/01/28 08:02:42;;;;;;;15.07;3.72;;;4.50;99.90;;;;;;5013845;28;20466;-63
2022/01/28 08:05:08;;;;;;;20.52;4.38;;;4.50;99.90;;;;;;4996767;28;20099;-65
2022/01/28 08:07:34;;;;;;;15.55;3.45;;;4.40;99.90;;;;;;5012695;28;20081;-64
2022/01/28 08:09:59;;;;;;;15.40;3.58;;;4.40;99.90;;;;;;5012714;28;20089;-66
2022/01/28 08:12:25;;;;;;;18.40;3.70;;;4.90;99.90;;;;;;5013332;28;20049;-65
2022/01/28 08:14:50;;;;;;;22.13;3.53;;;4.50;99.90;;;;;;5014139;28;20050;-65
2022/01/28 08:17:16;;;;;;;18.40;3.50;;;4.40;99.90;;;;;;5014671;28;20061;-64
2022/01/28 08:19:42;;;;;;;23.92;3.95;;;4.50;99.90;;;;;;5013764;28;20379;-65
2022/01/28 08:22:07;;;;;;;19.92;3.38;;;4.60;99.90;;;;;;5013771;28;20157;-67
2022/01/28 08:24:33;;;;;;;14.88;3.63;;;4.50;99.90;;;;;;5013746;28;20173;-64
2022/01/28 08:26:59;;;;;;;15.65;3.33;;;4.40;99.90;;;;;;5014139;28;20049;-63
2022/01/28 08:29:24;;;;;;;20.67;3.58;;;4.60;99.90;;;;;;5033730;28;20052;-64
2022/01/28 08:31:50;;;;;;;21.63;3.75;;;4.40;99.90;;;;;;5033620;28;20041;-66
2022/01/28 08:34:16;;;;;;;22.58;4.22;;;4.50;99.90;;;;;;5005237;28;20132;-65
2022/01/28 08:36:42;;;;;;;12.65;3.30;;;4.30;99.90;;;;;;5013623;28;20105;-68
2022/01/28 08:39:09;;;;;;;22.20;4.05;;;4.80;99.90;;;;;;5013281;28;20057;-64
2022/01/28 08:41:36;;;;;;;17.55;4.80;;;4.60;99.90;;;;;;5012610;28;20064;-64
2022/01/28 08:44:03;;;;;;;20.67;4.13;;;4.10;99.90;;;;;;4996764;28;20204;-66
2022/01/28 08:46:29;;;;;;;14.05;3.83;;;4.30;99.90;;;;;;5013269;28;20490;-65
2022/01/28 08:48:54;;;;;;;19.27;4.50;;;4.20;99.90;;;;;;5012416;28;20045;-64
2022/01/28 08:51:20;;;;;;;15.55;4.07;;;4.30;99.90;;;;;;5013166;28;20053;-64
2022/01/28 08:53:46;;;;;;;16.98;3.25;;;4.20;99.90;;;;;;5012845;28;20435;-65
2022/01/28 08:56:11;;;;;;;22.42;4.30;;;4.20;99.90;;;;;;5012784;28;20050;-66
2022/01/28 08:58:37;;;;;;;14.20;3.50;;;4.30;99.90;;;;;;5013033;28;20125;-63
2022/01/28 09:01:02;;;;;;;19.55;3.83;;;4.50;99.90;;;;;;5012424;28;20054;-64
2022/01/28 09:03:28;;;;;;;20.67;3.83;;;4.20;99.90;;;;;;5012793;28;20046;-66
2022/01/28 09:05:54;;;;;;;19.35;4.18;;;4.70;99.90;;;;;;5012040;28;20053;-66
2022/01/28 09:08:19;;;;;;;16.92;3.50;;;4.50;99.90;;;;;;5012435;28;20053;-64
2022/01/28 09:10:56;;;;;;;19.05;4.75;;;4.50;99.90;;;;;;5012817;28;20046;-64
2022/01/28 09:13:24;;;;;;;16.05;3.50;;;4.80;99.90;;;;;;5014498;28;20054;-64
2022/01/28 09:15:51;;;;;;;22.25;3.88;;;4.80;99.90;;;;;;5012845;28;20437;-66
2022/01/28 09:18:19;;;;;;;17.90;4.43;;;4.50;99.90;;;;;;5013047;28;20470;-63
2022/01/28 09:20:47;;;;;;;17.13;4.35;;;4.70;99.90;;;;;;5012699;28;20165;-65
2022/01/28 09:23:15;;;;;;;17.95;3.47;;;4.80;99.90;;;;;;5011787;28;20132;-64
2022/01/28 09:25:43;;;;;;;15.48;3.47;;;4.80;99.90;;;;;;4992227;28;20054;-66
2022/01/28 09:28:10;;;;;;;19.52;3.85;;;4.80;99.90;;;;;;4986929;28;20050;-63
2022/01/28 09:30:36;;;;;;;16.40;3.70;;;4.90;99.90;;;;;;5010400;28;20065;-65
2022/01/28 09:33:03;;;;;;;22.35;4.18;;;5.10;99.90;;;;;;5012895;28;20398;-64
2022/01/28 09:35:29;;;;;;;14.77;3.25;;;5.20;99.90;;;;;;5012084;28;20066;-64
2022/01/28 09:37:54;;;;;;;15.82;3.65;;;5.50;99.90;;;;;;5012253;28;20134;-66
2022/01/28 09:40:21;;;;;;;20.63;3.63;;;5.30;99.90;;;;;;5013531;28;20073;-65
2022/01/28 09:42:48;;;;;;;14.90;3.63;;;5.50;99.90;;;;;;5011411;28;20041;-66
2022/01/28 09:45:16;;;;;;;22.05;4.32;;;5.90;99.90;;;;;;5013730;28;20392;-66
2022/01/28 09:47:42;;;;;;;16.17;3.47;;;5.80;99.90;;;;;;5010699;28;20045;-66
2022/01/28 09:50:08;;;;;;;22.75;4.07;;;5.90;99.90;;;;;;5003522;28;20086;-65
2022/01/28 09:52:34;;;;;;;14.45;3.60;;;6.00;99.90;;;;;;5006474;28;20081;-67
2022/01/28 09:55:00;;;;;;;16.80;3.35;;;6.20;99.90;;;;;;5014327;28;20077;-65
2022/01/28 09:57:26;;;;;;;11.40;3.42;;;6.10;99.90;;;;;;5003266;28;20046;-65
2022/01/28 09:59:51;;;;;;;26.05;4.05;;;6.00;99.90;;;;;;5003805;28;20399;-64
2022/01/28 10:02:17;;;;;;;17.65;3.58;;;6.30;99.90;;;;;;5001394;28;20038;-65
2022/01/28 10:04:43;;;;;;;16.58;3.88;;;6.20;99.90;;;;;;4999330;28;20559;-65
2022/01/28 10:07:14;;;;;;;18.95;3.72;;;5.90;99.90;;;;;;5023640;28;20072;-67
2022/01/28 10:09:57;;;;;;;16.25;3.63;;;5.90;99.90;;;;;;5007476;28;20136;-66
2022/01/28 10:12:36;;;;;;;16.42;4.03;;;6.00;99.90;;;;;;5009330;28;20046;-64
2022/01/28 10:15:16;;;;;;;19.25;3.95;;;6.10;99.90;;;;;;5012675;28;20045;-63
2022/01/28 10:17:56;;;;;;;17.63;4.00;;;6.20;99.90;;;;;;5012893;28;20421;-66
2022/01/28 10:20:24;;;;;;;19.63;3.75;;;6.60;99.90;;;;;;5011678;28;20061;-67
2022/01/28 10:22:58;;;;;;;17.80;3.75;;;6.30;99.90;;;;;;5010612;28;20085;-64
2022/01/28 10:25:36;;;;;;;16.05;4.05;;;6.40;99.90;;;;;;5009906;28;20413;-66
2022/01/28 10:28:06;;;;;;;22.15;6.40;;;6.40;99.90;;;;;;5011995;28;20092;-66
2022/01/28 10:30:36;;;;;;;17.58;3.95;;;6.30;99.90;;;;;;5012066;28;20050;-65
2022/01/28 10:33:09;;;;;;;22.15;4.05;;;6.40;99.90;;;;;;5010846;28;20045;-66
2022/01/28 10:35:34;;;;;;;;;;;6.30;99.90;;;;;;5010049;28;20564;-66
2022/01/28 10:38:02;;;;;;;14.65;3.47;;;6.50;99.90;;;;;;5010548;28;20008;-65
2022/01/28 10:40:28;;;;;;;25.85;3.72;;;6.70;99.90;;;;;;5010264;28;20049;-65
2022/01/28 10:42:53;;;;;;;18.17;3.72;;;6.60;99.90;;;;;;5010533;28;20056;-66
2022/01/28 10:45:28;;;;;;;23.25;4.00;;;6.70;99.90;;;;;;5012469;28;20054;-66
2022/01/28 10:47:55;;;;;;;11.82;3.10;;;6.70;99.90;;;;;;5009656;28;20060;-66
2022/01/28 10:50:27;;;;;;;22.48;4.07;;;6.90;99.90;;;;;;5012727;28;20149;-65
2022/01/28 10:53:02;;;;;;;22.67;3.90;;;6.70;99.90;;;;;;5009172;28;20092;-64
2022/01/28 10:55:30;;;;;;;21.45;4.72;;;6.80;99.90;;;;;;5011096;28;20150;-66
2022/01/28 10:58:02;;;;;;;16.73;3.90;;;7.00;99.90;;;;;;5010962;28;20064;-66
2022/01/28 11:00:30;;;;;;;19.33;3.65;;;7.10;99.90;;;;;;5009363;28;20049;-64
2022/01/28 11:02:58;;;;;;;21.63;4.07;;;7.20;99.90;;;;;;5010464;28;20054;-67
2022/01/28 11:05:25;;;;;;;13.20;3.50;;;7.30;99.90;;;;;;5011940;28;20050;-66
2022/01/28 11:07:52;;;;;;;18.10;3.08;;;7.00;99.90;;;;;;5014161;28;20125;-64
2022/01/28 11:10:17;;;;;;;22.98;3.90;;;7.10;99.90;;;;;;5015432;28;20050;-66
2022/01/28 11:12:43;;;;;;;13.60;3.30;;;7.10;99.90;;;;;;5014182;28;20071;-65
2022/01/28 11:15:09;;;;;;;18.20;2.97;;;7.10;99.90;;;;;;5011764;28;20054;-64
2022/01/28 11:17:36;;;;;;;17.45;2.95;;;7.10;99.90;;;;;;5014895;28;20498;-64
2022/01/28 11:20:03;;;;;;;23.45;3.33;;;7.00;99.90;;;;;;5013389;28;20049;-64
2022/01/28 11:22:43;;;;;;;20.60;3.25;;;7.10;99.90;;;;;;5014725;28;20057;-65
2022/01/28 11:25:28;;;;;;;14.82;4.28;;;7.00;99.90;;;;;;5012584;28;20521;-65
2022/01/28 11:27:54;;;;;;;18.80;3.88;;;7.20;99.90;;;;;;4994543;28;20061;-66
2022/01/28 11:30:25;;;;;;;18.30;3.83;;;7.20;99.90;;;;;;4997061;28;20470;-68
2022/01/28 11:33:08;;;;;;;13.48;3.13;;;7.20;99.90;;;;;;4998709;28;20112;-66
2022/01/28 11:35:39;;;;;;;16.08;4.72;;;7.30;99.90;;;;;;5010792;28;20122;-66
2022/01/28 11:38:23;;;;;;;22.27;4.38;;;7.30;99.90;;;;;;5015204;28;20470;-64
2022/01/28 11:41:10;;;;;;;16.73;4.03;;;7.50;99.90;;;;;;5014348;28;20064;-66
2022/01/28 11:43:54;;;;;;;22.70;3.97;;;7.40;99.90;;;;;;5015988;28;20042;-68
2022/01/28 11:46:23;;;;;;;14.75;3.33;;;7.60;99.90;;;;;;5007043;28;20057;-66
2022/01/28 11:48:51;;;;;;;22.98;4.97;;;7.80;99.90;;;;;;5016369;28;20153;-65
2022/01/28 11:51:20;;;;;;;19.17;4.13;;;7.50;99.90;;;;;;5014448;28;20062;-65
2022/01/28 11:54:03;;;;;;;20.85;2.88;;;7.30;99.90;;;;;;5016258;28;20041;-65
2022/01/28 11:56:29;;;;;;;16.17;3.38;;;7.30;99.90;;;;;;5013944;28;20069;-65
2022/01/28 11:59:05;;;;;;;24.85;3.92;;;7.00;99.90;;;;;;5014723;28;20053;-65
2022/01/28 12:01:40;;;;;;;13.93;3.60;;;7.20;99.90;;;;;;5015204;28;20053;-64
2022/01/28 12:04:26;;;;;;;15.73;3.33;;;7.00;99.90;;;;;;5014225;28;20054;-65
2022/01/28 12:07:14;;;;;;;19.13;3.60;;;7.20;99.90;;;;;;4997909;28;20105;-64
2022/01/28 12:09:45;;;;;;;13.27;3.40;;;7.10;99.90;;;;;;5005864;28;20553;-66
2022/01/28 12:12:13;;;;;;;20.40;3.20;;;7.20;99.90;;;;;;5012779;28;20081;-64
2022/01/28 12:14:58;;;;;;;15.43;2.90;;;;;;;;;;5015950;28;20058;-65
2022/01/28 12:17:30;;;;;;;15.48;3.78;;;7.40;99.90;;;;;;5014425;28;20057;-64
2022/01/28 12:20:14;;;;;;;16.67;3.45;;;7.40;99.90;;;;;;5014959;28;20079;-66
2022/01/28 12:22:59;;;;;;;13.02;2.55;;;7.40;99.90;;;;;;5031222;28;20414;-65
2022/01/28 12:25:36;;;;;;;18.23;3.60;;;7.40;99.90;;;;;;5013565;28;20061;-65
2022/01/28 12:28:21;;;;;;;19.88;3.85;;;;;;;;;;5013945;28;20113;-66
2022/01/28 12:30:49;;;;;;;13.93;3.45;;;;;;;;;;5013187;28;20049;-67
2022/01/28 12:33:24;;;;;;;15.80;3.60;;;;;;;;;;5011790;28;20125;-65
2022/01/28 12:35:55;;;;;;;12.48;2.63;;;;;;;;;;5014751;28;20046;-65
2022/01/28 12:38:26;;;;;;;13.98;3.28;;;;;;;;;;5014581;28;20384;-65
2022/01/28 12:40:54;;;;;;;14.20;3.40;;;;;;;;;;5013485;28;20137;-64
2022/01/28 12:43:23;;;;;;;23.00;3.53;;;;;;;;;;5014270;28;20149;-64
2022/01/28 12:46:00;;;;;;;16.75;3.08;;;;;;;;;;5014979;28;20431;-67
2022/01/28 12:48:27;;;;;;;12.57;2.92;;;;;;;;;;5014043;28;20104;-67
2022/01/28 12:50:55;;;;;;;15.70;3.22;;;;;;;;;;5014543;28;20045;-65
2022/01/28 12:53:36;;;;;;;15.27;3.45;;;;;;;;;;5013654;28;20100;-66
2022/01/28 12:56:04;;;;;;;14.68;3.03;;;;;;;;;;5011565;28;20046;-65
2022/01/28 12:58:32;;;;;;;13.15;2.85;;;;;;;;;;4997924;28;20049;-66
2022/01/28 13:01:09;;;;;;;15.82;3.30;;;;;;;;;;5014225;28;20485;-64
2022/01/28 13:03:45;;;;;;;19.35;3.20;;;;;;;;;;5013924;28;20054;-64
2022/01/28 13:06:40;;;;;;;18.60;3.20;;;;;;;;;;5013792;28;20065;-64
2022/01/28 13:09:13;;;;;;;11.35;2.25;;;;;;;;;;5014025;28;20082;-66
2022/01/28 13:11:40;;;;;;;;;;;;;;;;;;5014177;28;20042;-65
2022/01/28 13:14:05;;;;;;;21.40;3.13;;;7.90;99.90;;;;;;5012998;28;20297;-65
2022/01/28 13:16:33;;;;;;;19.63;3.05;;;;;;;;;;5013384;28;20050;-66
2022/01/28 13:19:00;;;;;;;14.13;2.65;;;;;;;;;;5013391;28;20093;-66
2022/01/28 13:21:27;;;;;;;14.63;2.78;;;;;;;;;;5012984;28;20046;-67
2022/01/28 13:24:04;;;;;;;14.55;3.67;;;;;;;;;;5014364;28;20393;-66
2022/01/28 13:26:30;;;;;;;17.30;3.00;;;7.80;99.90;;;;;;5012862;28;20050;-65
2022/01/28 13:29:07;;;;;;;22.58;3.92;;;;;;;;;;5013186;28;20096;-66
2022/01/28 13:31:34;;;;;;;19.52;3.28;;;;;;;;;;5013715;28;20382;-66
2022/01/28 13:34:04;;;;;;;15.73;3.58;;;;;;;;;;5089286;22;20072;-66
2022/01/28 13:36:41;;;;;;;14.18;3.75;;;;;;;;;;5033844;28;20100;-65
2022/01/28 13:39:15;;;;;;;19.77;3.80;;;;;;;;;;5013223;28;20049;-65
2022/01/28 13:41:41;;;;;;;21.85;3.47;;;;;;;;;;5017307;28;20371;-66
2022/01/28 13:44:43;;;;;;;14.63;2.97;;;;;;;;;;5016568;28;20115;-66
2022/01/28 13:47:09;;;;;;;18.40;2.90;;;7.50;99.90;;;;;;4921812;29;20051;-65
2022/01/28 13:49:38;;;;;;;13.50;3.40;;;7.50;99.90;;;;;;4937521;29;20059;-66
2022/01/28 13:52:13;;;;;;;18.08;2.80;;;7.50;99.90;;;;;;4937759;29;20086;-66
2022/01/28 13:54:39;;;;;;;16.58;3.10;;;7.50;99.90;;;;;;4954304;28;20141;-66
2022/01/28 13:57:06;;;;;;;15.82;2.97;;;7.50;99.90;;;;;;4936869;29;20629;-67
2022/01/28 13:59:34;;;;;;;15.10;3.17;;;7.60;99.90;;;;;;4937366;28;20523;-66
2022/01/28 14:02:01;;;;;;;10.18;2.45;;;7.40;99.90;;;;;;4937165;29;20097;-67
2022/01/28 14:04:37;;;;;;;13.23;3.03;;;7.60;99.90;;;;;;4937314;29;20144;-67
2022/01/28 14:07:19;;;;;;;11.13;2.67;;;7.50;99.90;;;;;;4952584;29;20086;-67
2022/01/28 14:10:03;;;;;;;17.90;3.97;;;7.60;99.90;;;;;;4937258;29;20051;-67
2022/01/28 14:12:40;;;;;;;21.63;3.22;;;7.50;99.90;;;;;;4936155;29;20260;-66
2022/01/28 14:15:25;;;;;;;10.18;2.17;;;7.70;99.90;;;;;;4952949;28;20444;-66
2022/01/28 14:17:57;;;;;;;18.77;3.70;;;7.70;99.90;;;;;;5146974;22;20040;-67
2022/01/28 14:20:25;;;;;;;14.95;2.95;;;7.60;99.90;;;;;;5061353;22;20131;-66